Time;durP1;ratioP1;P1;durP2;ratioP2;P2;SDS_P1;SDS_P2;PMS_P1;PMS_P2;Temp;Humidity;BMP_temperature;BMP_pressure;BME280_temperature;BME280_humidity;BME280_pressure;Samples;Min_cycle;Max_cycle;Signal;HPM_P1;HPM_P2
2023/03/15 00:01:15;;;;;;;4.23;2.10;;;16.00;59.80;17.00;100362.00;;;;5010751;28;20174;-45
2023/03/15 00:03:41;;;;;;;3.17;2.23;;;16.00;59.80;16.90;100369.00;;;;5010725;28;20780;-44
2023/03/15 00:06:08;;;;;;;2.50;2.00;;;16.00;59.80;16.90;100370.00;;;;5010460;28;20191;-45
2023/03/15 00:08:33;;;;;;;3.97;2.23;;;16.00;59.80;16.90;100380.00;;;;5010079;28;20262;-45
2023/03/15 00:11:00;;;;;;;2.37;2.00;;;16.00;59.80;16.90;100373.00;;;;5011028;28;20204;-45
2023/03/15 00:13:26;;;;;;;2.90;2.13;;;16.00;59.80;16.90;100377.00;;;;5012733;28;20186;-45
2023/03/15 00:15:55;;;;;;;2.57;1.93;;;16.00;59.80;16.90;100384.00;;;;5012741;28;20175;-45
2023/03/15 00:18:21;;;;;;;2.97;2.00;;;15.90;59.70;16.90;100384.00;;;;5009250;28;20196;-46
2023/03/15 00:20:47;;;;;;;2.90;2.00;;;15.90;59.70;16.80;100382.00;;;;5010339;28;20549;-45
2023/03/15 00:23:13;;;;;;;1.90;1.80;;;15.90;59.70;16.80;100390.00;;;;5009959;28;20178;-46
2023/03/15 00:25:39;;;;;;;3.00;1.97;;;15.90;59.70;16.80;100384.00;;;;5008782;28;20195;-45
2023/03/15 00:28:05;;;;;;;3.17;1.90;;;15.90;59.70;16.80;100385.00;;;;5009723;28;20196;-45
2023/03/15 00:30:30;;;;;;;2.73;1.90;;;15.90;59.70;16.80;100395.00;;;;5009981;28;20179;-45
2023/03/15 00:32:56;;;;;;;2.87;2.03;;;15.90;59.70;16.80;100395.00;;;;5009718;28;20199;-45
2023/03/15 00:35:22;;;;;;;2.57;2.00;;;15.80;59.60;16.80;100393.00;;;;5001971;28;20218;-45
2023/03/15 00:37:53;;;;;;;1.90;1.80;;;15.80;59.60;16.80;100392.00;;;;5009860;28;20274;-46
2023/03/15 00:40:19;;;;;;;3.47;1.90;;;15.80;59.60;16.80;100410.00;;;;5009467;28;20260;-45
2023/03/15 00:42:48;;;;;;;4.30;2.10;;;15.80;59.60;16.70;100401.00;;;;5009478;28;20198;-45
2023/03/15 00:45:16;;;;;;;2.30;2.10;;;15.80;59.70;16.70;100407.00;;;;5009454;28;20191;-45
2023/03/15 00:47:41;;;;;;;3.37;2.00;;;15.80;59.60;16.70;100403.00;;;;5009522;28;20751;-45
2023/03/15 00:50:08;;;;;;;2.33;1.70;;;15.80;59.70;16.70;100407.00;;;;5009642;28;20211;-45
2023/03/15 00:52:36;;;;;;;2.30;1.90;;;15.80;59.70;16.70;100406.00;;;;5009285;28;20291;-45
2023/03/15 00:55:03;;;;;;;3.10;2.23;;;15.70;59.60;16.70;100399.00;;;;5007973;28;20164;-45
2023/03/15 00:57:29;;;;;;;3.50;1.90;;;15.70;59.60;16.70;100403.00;;;;5009728;28;20781;-45
2023/03/15 00:59:55;;;;;;;3.40;2.00;;;15.70;59.60;16.60;100404.00;;;;5008187;28;20182;-45
2023/03/15 01:02:21;;;;;;;2.27;1.90;;;15.70;59.60;16.60;100408.00;;;;5010327;28;20195;-45
2023/03/15 01:04:48;;;;;;;1.80;1.70;;;15.70;59.60;16.60;100408.00;;;;5015339;28;20183;-45
2023/03/15 01:07:14;;;;;;;1.93;1.83;;;15.70;59.60;16.60;100419.00;;;;5014617;28;20186;-45
2023/03/15 01:09:40;;;;;;;3.50;1.90;;;15.70;59.60;16.60;100408.00;;;;5013523;28;20188;-45
2023/03/15 01:12:07;;;;;;;2.10;1.70;;;15.70;59.60;16.60;100414.00;;;;5009303;28;20290;-45
2023/03/15 01:14:34;;;;;;;2.80;2.10;;;15.70;59.60;16.60;100417.00;;;;5009092;28;20210;-45
2023/03/15 01:17:00;;;;;;;2.33;1.70;;;15.70;59.60;16.60;100415.00;;;;5009241;28;20172;-45
2023/03/15 01:19:26;;;;;;;2.50;2.00;;;15.60;59.60;16.50;100406.00;;;;5008539;28;20211;-45
2023/03/15 01:21:52;;;;;;;2.07;1.87;;;15.60;59.60;16.50;100407.00;;;;5008884;28;20562;-45
2023/03/15 01:24:17;;;;;;;2.10;1.90;;;15.60;59.70;16.50;100418.00;;;;5009121;28;20190;-46
2023/03/15 01:26:43;;;;;;;2.23;1.70;;;15.60;59.60;16.50;100411.00;;;;5007926;28;20600;-47
2023/03/15 01:29:09;;;;;;;2.47;1.80;;;15.60;59.60;16.50;100413.00;;;;5008695;28;20880;-45
2023/03/15 01:31:35;;;;;;;2.70;1.90;;;15.60;59.70;16.50;100413.00;;;;5008868;28;20202;-45
2023/03/15 01:34:00;;;;;;;2.10;1.90;;;15.50;59.70;16.20;100423.00;;;;5008952;28;20526;-46
2023/03/15 01:36:26;;;;;;;2.10;1.83;;;15.60;59.70;16.40;100432.00;;;;5009148;28;20642;-45
2023/03/15 01:38:53;;;;;;;1.93;1.70;;;15.50;59.60;16.40;100426.00;;;;5008858;28;20615;-45
2023/03/15 01:41:19;;;;;;;2.23;1.80;;;15.50;59.60;16.40;100440.00;;;;5008529;28;20658;-45
2023/03/15 01:43:48;;;;;;;3.37;1.90;;;15.50;59.60;16.40;100427.00;;;;5009067;28;20190;-45
2023/03/15 01:46:23;;;;;;;2.23;1.87;;;15.50;59.60;16.40;100433.00;;;;5009092;28;20211;-45
2023/03/15 01:48:54;;;;;;;2.07;1.80;;;15.50;59.70;16.40;100446.00;;;;5007800;28;20199;-45
2023/03/15 01:51:25;;;;;;;1.93;1.80;;;15.50;59.70;16.40;100435.00;;;;5008994;28;20284;-45
2023/03/15 01:54:02;;;;;;;2.10;1.87;;;15.40;60.30;16.30;100426.00;;;;5007761;28;20235;-45
2023/03/15 01:56:28;;;;;;;1.90;1.73;;;15.40;59.70;16.30;100435.00;;;;5007961;28;20704;-45
2023/03/15 01:58:53;;;;;;;1.87;1.70;;;15.40;59.70;16.30;100425.00;;;;5008872;28;20192;-45
2023/03/15 02:01:20;;;;;;;2.37;2.00;;;15.40;59.70;16.30;100442.00;;;;5007226;28;20191;-45
2023/03/15 02:03:46;;;;;;;2.43;2.17;;;15.40;59.70;16.30;100432.00;;;;5007743;28;20179;-45
2023/03/15 02:06:19;;;;;;;3.07;1.90;;;15.40;59.70;16.30;100435.00;;;;5007379;28;20190;-45
2023/03/15 02:08:49;;;;;;;2.10;1.90;;;15.40;59.70;16.30;100434.00;;;;5007596;28;20611;-45
2023/03/15 02:11:17;;;;;;;3.60;2.30;;;15.40;59.80;16.30;100421.00;;;;5007040;28;20192;-45
2023/03/15 02:13:43;;;;;;;2.87;2.07;;;15.30;59.60;16.30;100434.00;;;;5007241;28;20667;-45
2023/03/15 02:16:09;;;;;;;2.10;1.90;;;15.30;59.60;16.30;100435.00;;;;5007495;28;20168;-45
2023/03/15 02:18:35;;;;;;;2.57;1.77;;;15.40;59.80;16.20;100440.00;;;;5007396;28;20191;-45
2023/03/15 02:21:25;;;;;;;2.03;1.87;;;15.30;59.70;16.20;100445.00;;;;5008562;28;20183;-45
2023/03/15 02:24:03;;;;;;;2.00;1.80;;;15.30;59.70;16.20;100451.00;;;;5008315;28;20191;-46
2023/03/15 02:26:44;;;;;;;2.10;1.80;;;15.30;60.40;16.20;100440.00;;;;5007541;28;20180;-45
2023/03/15 02:29:10;;;;;;;2.10;1.90;;;15.30;59.70;16.20;100433.00;;;;5007126;28;20254;-45
2023/03/15 02:31:36;;;;;;;2.70;2.00;;;15.30;59.60;16.20;100437.00;;;;5010176;28;20282;-45
2023/03/15 02:34:03;;;;;;;2.03;1.83;;;15.30;59.60;16.20;100434.00;;;;5010818;28;20187;-45
2023/03/15 02:36:30;;;;;;;2.20;2.00;;;15.30;59.50;16.10;100435.00;;;;5012239;28;20172;-46
2023/03/15 02:38:56;;;;;;;1.80;1.70;;;15.20;59.50;16.10;100440.00;;;;5012182;28;20681;-45
2023/03/15 02:41:35;;;;;;;2.63;1.70;;;15.20;59.60;16.10;100443.00;;;;5013194;28;20234;-44
2023/03/15 02:44:51;;;;;;;1.83;1.73;;;15.30;59.60;16.10;100448.00;;;;5012875;28;20183;-45
2023/03/15 02:47:29;;;;;;;1.93;1.70;;;15.20;59.50;16.10;100448.00;;;;5011681;28;20200;-44
2023/03/15 02:49:54;;;;;;;2.37;1.90;;;15.20;59.50;16.00;100452.00;;;;5010887;28;20175;-45
2023/03/15 02:52:21;;;;;;;1.70;1.60;;;15.30;59.70;16.00;100451.00;;;;5011893;28;20196;-44
2023/03/15 02:54:47;;;;;;;1.70;1.60;;;15.20;59.60;16.00;100466.00;;;;5012291;28;20180;-45
2023/03/15 02:57:13;;;;;;;2.00;1.80;;;15.20;59.70;16.00;100458.00;;;;5011838;28;20179;-46
2023/03/15 02:59:41;;;;;;;1.83;1.73;;;15.10;59.70;16.00;100465.00;;;;5011976;28;20172;-45
2023/03/15 03:02:07;;;;;;;1.67;1.57;;;15.10;59.80;16.00;100471.00;;;;5011752;28;20179;-45
2023/03/15 03:04:33;;;;;;;1.63;1.53;;;15.10;59.90;16.00;100466.00;;;;5012372;28;20187;-44
2023/03/15 03:06:59;;;;;;;2.57;1.83;;;15.10;59.70;16.00;100471.00;;;;5012074;28;20233;-45
2023/03/15 03:09:25;;;;;;;1.70;1.60;;;15.10;59.70;16.00;100469.00;;;;5011929;28;20573;-44
2023/03/15 03:11:50;;;;;;;1.90;1.80;;;15.10;59.80;16.00;100468.00;;;;5011276;28;20192;-45
2023/03/15 03:14:16;;;;;;;1.90;1.70;;;15.10;59.70;16.00;100476.00;;;;5011229;28;21859;-45
2023/03/15 03:16:42;;;;;;;1.80;1.70;;;15.10;59.60;16.00;100441.00;;;;5011622;28;20167;-44
2023/03/15 03:19:11;;;;;;;1.80;1.60;;;15.10;59.70;15.90;100483.00;;;;5011184;28;20207;-45
2023/03/15 03:21:37;;;;;;;1.80;1.70;;;15.00;59.60;15.90;100479.00;;;;5011006;28;20191;-44
2023/03/15 03:24:02;;;;;;;1.83;1.73;;;15.00;59.70;15.90;100495.00;;;;5010956;28;20242;-43
2023/03/15 03:26:31;;;;;;;1.60;1.50;;;15.00;59.70;15.90;100478.00;;;;5011273;28;20262;-45
2023/03/15 03:28:57;;;;;;;1.70;1.60;;;15.00;59.70;15.90;100492.00;;;;5011128;28;20681;-44
2023/03/15 03:31:24;;;;;;;1.90;1.70;;;15.00;59.80;15.90;100483.00;;;;5011098;28;20196;-45
2023/03/15 03:33:50;;;;;;;3.07;1.83;;;15.00;59.80;15.90;100493.00;;;;5011130;28;20180;-45
2023/03/15 03:36:16;;;;;;;1.80;1.70;;;15.00;59.80;15.90;100500.00;;;;5010804;28;20255;-45
2023/03/15 03:38:43;;;;;;;1.50;1.40;;;15.00;59.80;15.90;100506.00;;;;5010841;28;20279;-45
2023/03/15 03:41:09;;;;;;;1.87;1.77;;;15.00;59.80;15.90;100505.00;;;;5010535;28;20184;-45
2023/03/15 03:43:35;;;;;;;1.57;1.47;;;15.00;59.80;15.90;100502.00;;;;5010334;28;20183;-45
2023/03/15 03:46:01;;;;;;;2.07;1.80;;;14.90;59.70;15.90;100522.00;;;;5010619;28;20498;-45
2023/03/15 03:48:27;;;;;;;1.83;1.70;;;14.90;59.70;15.90;100510.00;;;;5009558;28;20195;-44
2023/03/15 03:50:53;;;;;;;2.17;1.80;;;15.00;59.90;15.90;100516.00;;;;5010830;28;20179;-45
2023/03/15 03:53:19;;;;;;;1.60;1.50;;;15.00;59.80;15.90;100522.00;;;;5010810;28;20176;-45
2023/03/15 03:55:45;;;;;;;1.87;1.70;;;14.90;59.90;15.80;100518.00;;;;5011050;28;20655;-45
2023/03/15 03:58:11;;;;;;;1.67;1.53;;;14.90;59.80;15.80;100532.00;;;;5010825;28;20354;-45
2023/03/15 04:00:37;;;;;;;1.60;1.50;;;14.90;59.90;15.80;100524.00;;;;5010670;28;20650;-45
2023/03/15 04:03:02;;;;;;;1.60;1.50;;;14.90;59.90;15.80;100521.00;;;;5010428;28;20215;-45
2023/03/15 04:05:28;;;;;;;2.00;1.77;;;14.90;59.70;15.80;100527.00;;;;5010629;28;20250;-44
2023/03/15 04:07:54;;;;;;;1.70;1.60;;;14.90;59.90;15.70;100525.00;;;;5009043;28;20262;-46
2023/03/15 04:10:25;;;;;;;1.70;1.60;;;14.90;59.90;15.70;100528.00;;;;5010251;28;20211;-45
2023/03/15 04:12:54;;;;;;;2.90;1.80;;;14.80;59.90;15.70;100526.00;;;;5010167;28;20195;-44
2023/03/15 04:15:23;;;;;;;1.60;1.50;;;14.80;59.80;15.70;100542.00;;;;5008473;28;20684;-45
2023/03/15 04:17:54;;;;;;;1.70;1.60;;;14.80;60.20;15.70;100532.00;;;;5010050;28;20199;-45
2023/03/15 04:20:21;;;;;;;1.47;1.37;;;14.80;59.80;15.70;100532.00;;;;5010232;28;20172;-45
2023/03/15 04:22:48;;;;;;;1.60;1.50;;;14.80;59.70;15.70;100549.00;;;;5008643;28;20168;-45
2023/03/15 04:25:18;;;;;;;1.50;1.40;;;14.80;59.70;15.70;100549.00;;;;5009913;28;20622;-45
2023/03/15 04:27:43;;;;;;;1.50;1.40;;;14.80;59.80;15.70;100551.00;;;;5010078;28;20188;-45
2023/03/15 04:30:10;;;;;;;2.00;1.73;;;14.80;59.80;15.70;100555.00;;;;5009777;28;20537;-45
2023/03/15 04:32:36;;;;;;;1.63;1.53;;;14.80;60.20;15.70;100560.00;;;;5009961;28;20331;-44
2023/03/15 04:35:03;;;;;;;1.80;1.70;;;14.80;60.00;15.70;100558.00;;;;5008685;28;20175;-45
2023/03/15 04:37:30;;;;;;;3.50;1.63;;;14.80;59.90;15.70;100559.00;;;;5010090;28;20245;-45
2023/03/15 04:39:56;;;;;;;1.53;1.43;;;14.80;59.90;15.70;100564.00;;;;5010094;28;20168;-45
2023/03/15 04:42:24;;;;;;;2.40;1.70;;;14.80;60.10;15.70;100562.00;;;;5009856;28;20565;-45
2023/03/15 04:44:50;;;;;;;2.17;1.70;;;14.80;60.40;15.60;100577.00;;;;5009892;28;20274;-45
2023/03/15 04:47:16;;;;;;;4.00;1.80;;;14.80;60.30;15.60;100570.00;;;;5010363;28;20265;-45
2023/03/15 04:49:42;;;;;;;2.43;2.00;;;14.80;60.20;15.70;100571.00;;;;5010467;28;20176;-45
2023/03/15 04:52:07;;;;;;;2.73;1.93;;;14.90;60.20;15.60;100571.00;;;;5010228;28;20541;-45
2023/03/15 04:54:33;;;;;;;2.50;1.80;;;14.90;60.10;15.70;100580.00;;;;5009680;28;20175;-45
2023/03/15 04:56:59;;;;;;;4.37;2.00;;;14.90;59.90;15.70;100579.00;;;;5010201;28;20179;-44
2023/03/15 04:59:25;;;;;;;2.23;1.80;;;14.90;59.70;15.70;100579.00;;;;5010278;28;21021;-45
2023/03/15 05:01:50;;;;;;;2.10;1.80;;;14.90;59.70;15.40;100582.00;;;;5010281;28;20230;-45
2023/03/15 05:04:16;;;;;;;2.00;1.80;;;15.00;60.10;15.70;100590.00;;;;5010180;28;20238;-46
2023/03/15 05:06:42;;;;;;;1.97;1.87;;;15.00;59.60;15.70;100592.00;;;;5010359;28;20583;-45
2023/03/15 05:09:07;;;;;;;2.43;1.90;;;15.00;59.60;15.70;100581.00;;;;5010011;28;20195;-46
2023/03/15 05:11:33;;;;;;;2.90;2.10;;;15.00;59.50;15.70;100593.00;;;;5009961;28;20200;-46
2023/03/15 05:13:59;;;;;;;1.83;1.60;;;15.00;60.10;15.70;100590.00;;;;5010613;28;20178;-46
2023/03/15 05:16:25;;;;;;;1.93;1.83;;;15.00;59.30;15.70;100583.00;;;;5013258;28;20199;-44
2023/03/15 05:18:52;;;;;;;3.70;1.90;;;15.00;59.30;15.70;100583.00;;;;5016737;28;20191;-44
2023/03/15 05:21:18;;;;;;;2.10;1.80;;;15.00;59.50;15.70;100601.00;;;;5011992;28;20179;-44
2023/03/15 05:23:44;;;;;;;2.27;1.80;;;15.00;59.60;15.70;100599.00;;;;4989958;28;20567;-44
2023/03/15 05:26:09;;;;;;;1.77;1.67;;;15.00;59.70;15.70;100603.00;;;;5004980;28;20655;-45
2023/03/15 05:28:35;;;;;;;1.97;1.80;;;15.00;59.80;15.70;100610.00;;;;5003695;28;20745;-45
2023/03/15 05:31:01;;;;;;;1.97;1.77;;;15.00;59.90;15.70;100537.00;;;;5008906;28;20187;-45
2023/03/15 05:33:27;;;;;;;3.33;1.87;;;15.00;59.90;15.80;100615.00;;;;5009137;28;20180;-45
2023/03/15 05:35:55;;;;;;;2.20;1.70;;;15.00;60.00;15.80;100537.00;;;;5009373;28;20645;-45
2023/03/15 05:38:25;;;;;;;2.10;1.67;;;15.00;60.00;15.80;100622.00;;;;5008898;28;20210;-45
2023/03/15 05:40:51;;;;;;;1.80;1.50;;;15.00;60.10;15.80;100629.00;;;;5009105;28;20708;-45
2023/03/15 05:43:16;;;;;;;2.37;1.70;;;15.00;60.20;15.80;100630.00;;;;5008509;28;20187;-45
2023/03/15 05:45:43;;;;;;;2.47;1.57;;;15.00;60.30;15.80;100635.00;;;;5009183;28;20214;-45
2023/03/15 05:48:09;;;;;;;4.53;1.90;;;15.00;60.50;15.80;100643.00;;;;5008959;28;20212;-44
2023/03/15 05:50:35;;;;;;;3.20;1.70;;;15.10;61.00;15.80;100639.00;;;;5008563;28;20190;-45
2023/03/15 05:53:00;;;;;;;2.67;1.70;;;15.10;60.90;15.80;100653.00;;;;5007348;28;20254;-45
2023/03/15 05:55:26;;;;;;;2.87;1.67;;;15.10;61.00;15.80;100630.00;;;;5007745;28;20241;-45
2023/03/15 05:57:52;;;;;;;3.80;2.00;;;15.10;61.00;15.80;100667.00;;;;5007246;28;20202;-52
2023/03/15 06:00:18;;;;;;;1.70;1.53;;;15.00;60.90;15.80;100672.00;;;;5008114;28;20175;-44
2023/03/15 06:02:44;;;;;;;2.20;1.80;;;15.00;61.00;15.80;100669.00;;;;4999784;28;20706;-45
2023/03/15 06:05:10;;;;;;;2.00;1.70;;;15.00;61.00;15.80;100674.00;;;;5009513;28;20191;-45
2023/03/15 06:07:36;;;;;;;1.80;1.50;;;15.00;61.00;15.80;100671.00;;;;5013208;28;20729;-44
2023/03/15 06:10:02;;;;;;;3.03;1.53;;;15.00;61.10;15.80;100677.00;;;;5012360;28;20203;-46
2023/03/15 06:12:27;;;;;;;1.80;1.57;;;15.00;61.10;15.80;100674.00;;;;5010996;28;20207;-45
2023/03/15 06:14:53;;;;;;;2.30;1.40;;;15.00;61.00;15.80;100684.00;;;;5010786;28;20187;-46
2023/03/15 06:17:19;;;;;;;2.17;1.77;;;15.00;61.00;15.80;100689.00;;;;5012345;28;20172;-45
2023/03/15 06:19:45;;;;;;;1.67;1.50;;;15.00;60.90;15.80;100691.00;;;;5012663;28;20655;-46
2023/03/15 06:22:10;;;;;;;2.10;1.53;;;15.00;60.90;15.80;100687.00;;;;5012552;28;20263;-46
2023/03/15 06:24:36;;;;;;;2.20;1.43;;;15.00;60.90;15.80;100699.00;;;;5012995;28;20191;-46
2023/03/15 06:27:02;;;;;;;2.60;1.60;;;15.00;60.90;15.80;100705.00;;;;5012624;28;20654;-47
2023/03/15 06:29:28;;;;;;;2.17;1.60;;;15.00;60.90;15.80;100703.00;;;;5012501;28;20204;-46
2023/03/15 06:31:53;;;;;;;2.30;1.67;;;15.00;60.80;15.80;100710.00;;;;5010134;28;20270;-46
2023/03/15 06:34:20;;;;;;;1.43;1.33;;;15.00;60.90;15.80;100714.00;;;;5012735;28;20176;-45
2023/03/15 06:36:46;;;;;;;1.47;1.27;;;15.00;60.80;15.80;100717.00;;;;5009593;28;20187;-51
2023/03/15 06:39:12;;;;;;;1.50;1.40;;;15.00;60.90;15.80;100725.00;;;;5010354;28;20286;-46
2023/03/15 06:41:38;;;;;;;2.53;1.67;;;15.00;60.90;15.80;100717.00;;;;5009704;28;20841;-45
2023/03/15 06:44:04;;;;;;;1.50;1.40;;;15.00;60.90;15.80;100711.00;;;;5012754;28;20808;-45
2023/03/15 06:46:30;;;;;;;1.50;1.40;;;15.00;61.00;15.80;100720.00;;;;4991588;28;20295;-45
2023/03/15 06:48:56;;;;;;;1.50;1.40;;;15.00;61.00;15.80;100717.00;;;;5008845;28;20270;-45
2023/03/15 06:51:22;;;;;;;2.30;1.50;;;15.00;61.00;15.80;100725.00;;;;5011706;28;20196;-46
2023/03/15 06:53:47;;;;;;;1.80;1.60;;;15.00;61.00;15.80;100728.00;;;;5011299;28;20203;-45
2023/03/15 06:56:13;;;;;;;1.73;1.60;;;15.00;61.00;15.80;100735.00;;;;5012466;28;20563;-45
2023/03/15 06:58:39;;;;;;;1.60;1.50;;;15.00;60.90;15.80;100746.00;;;;5010969;28;20230;-45
2023/03/15 07:01:05;;;;;;;1.60;1.23;;;15.00;61.00;15.80;100752.00;;;;5011036;28;20203;-45
2023/03/15 07:03:30;;;;;;;1.50;1.40;;;15.00;61.00;15.80;100750.00;;;;5011792;28;20184;-50
2023/03/15 07:05:56;;;;;;;1.70;1.60;;;15.00;61.00;15.80;100762.00;;;;5012064;28;20176;-45
2023/03/15 07:08:23;;;;;;;1.20;1.10;;;15.00;60.90;15.80;100769.00;;;;5011935;28;20191;-45
2023/03/15 07:10:49;;;;;;;1.47;1.37;;;15.00;61.00;15.80;100767.00;;;;5011979;28;20275;-45
2023/03/15 07:13:15;;;;;;;1.53;1.43;;;15.00;60.90;15.80;100776.00;;;;5010509;28;20282;-45
2023/03/15 07:15:41;;;;;;;1.60;1.50;;;15.00;61.00;15.80;100771.00;;;;5011247;28;20222;-45
2023/03/15 07:18:07;;;;;;;1.57;1.47;;;15.00;61.00;15.80;100779.00;;;;5010613;28;20730;-45
2023/03/15 07:20:33;;;;;;;1.33;1.30;;;15.00;61.00;15.80;100782.00;;;;5011700;28;20654;-46
2023/03/15 07:22:58;;;;;;;1.60;1.50;;;15.00;61.00;15.80;100783.00;;;;5010034;28;20686;-46
2023/03/15 07:25:24;;;;;;;1.60;1.50;;;15.00;61.00;15.80;100799.00;;;;5011799;28;20712;-45
2023/03/15 07:27:51;;;;;;;1.30;1.20;;;15.00;60.90;15.80;100799.00;;;;5011862;28;20199;-46
2023/03/15 07:30:18;;;;;;;1.40;1.30;;;15.00;60.90;15.80;100797.00;;;;5009634;28;20175;-45
2023/03/15 07:32:43;;;;;;;1.47;1.27;;;15.00;60.90;15.80;100800.00;;;;5011494;28;20623;-45
2023/03/15 07:35:09;;;;;;;1.93;1.50;;;15.00;60.90;15.80;100807.00;;;;5010401;28;20188;-46
2023/03/15 07:37:35;;;;;;;1.33;1.23;;;15.00;61.00;15.80;100811.00;;;;5010418;28;20196;-46
2023/03/15 07:40:08;;;;;;;1.60;1.50;;;15.00;60.90;15.80;100818.00;;;;5011241;28;20623;-46
2023/03/15 07:42:35;;;;;;;1.60;1.50;;;15.00;60.90;15.80;100822.00;;;;5011004;28;20183;-45
2023/03/15 07:45:03;;;;;;;1.40;1.30;;;15.00;61.00;15.80;100820.00;;;;5011559;28;20671;-45
2023/03/15 07:47:29;;;;;;;1.40;1.30;;;15.00;60.90;15.80;100832.00;;;;5011328;28;20199;-45
2023/03/15 07:49:55;;;;;;;1.60;1.50;;;15.00;60.90;15.80;100837.00;;;;5010984;28;20629;-45
2023/03/15 07:52:21;;;;;;;1.30;1.30;;;15.00;60.90;15.80;100837.00;;;;5009396;28;20195;-46
2023/03/15 07:54:47;;;;;;;1.23;1.23;;;15.00;61.00;15.80;100844.00;;;;5011735;28;20719;-45
2023/03/15 07:57:13;;;;;;;1.50;1.40;;;15.00;61.00;15.80;100849.00;;;;5012010;28;20180;-51
2023/03/15 07:59:38;;;;;;;1.40;1.30;;;15.00;61.00;15.80;100852.00;;;;5010270;28;20172;-45
2023/03/15 08:02:04;;;;;;;1.53;1.43;;;15.00;61.00;15.80;100865.00;;;;5010199;28;20180;-45
2023/03/15 08:04:30;;;;;;;1.30;1.23;;;15.00;60.90;15.80;100862.00;;;;5009901;28;20190;-45
2023/03/15 08:06:56;;;;;;;1.47;1.37;;;15.00;60.90;15.80;100863.00;;;;5011036;28;20183;-46
2023/03/15 08:09:22;;;;;;;1.40;1.30;;;15.00;61.00;15.80;100870.00;;;;5010583;28;20203;-46
2023/03/15 08:11:47;;;;;;;1.50;1.40;;;15.00;60.90;15.80;100869.00;;;;5010247;28;20203;-45
2023/03/15 08:14:13;;;;;;;1.50;1.40;;;15.00;60.80;15.80;100874.00;;;;5009812;28;20183;-48
2023/03/15 08:16:39;;;;;;;1.33;1.23;;;15.00;60.80;15.80;100879.00;;;;5010630;28;20186;-45
2023/03/15 08:19:05;;;;;;;1.37;1.30;;;15.00;60.90;15.80;100886.00;;;;5010604;28;20191;-45
2023/03/15 08:21:32;;;;;;;1.40;1.30;;;15.00;60.90;15.80;100884.00;;;;5009895;28;20190;-45
2023/03/15 08:23:59;;;;;;;1.50;1.40;;;15.00;60.90;15.80;100897.00;;;;5010309;28;20200;-45
2023/03/15 08:26:24;;;;;;;1.40;1.30;;;15.00;61.00;15.80;100888.00;;;;5010321;28;20176;-46
2023/03/15 08:28:50;;;;;;;1.33;1.27;;;15.00;61.00;15.80;100903.00;;;;5009038;28;20208;-46
2023/03/15 08:31:16;;;;;;;1.20;1.20;;;15.00;61.00;15.80;100903.00;;;;5009469;28;20186;-46
2023/03/15 08:33:43;;;;;;;1.30;1.20;;;15.00;61.00;15.80;100904.00;;;;5010375;28;20639;-45
2023/03/15 08:36:08;;;;;;;1.00;1.00;;;15.00;60.90;15.80;100913.00;;;;5010713;28;20203;-45
2023/03/15 08:38:34;;;;;;;1.40;1.30;;;15.00;60.90;15.80;100915.00;;;;5010683;28;20282;-46
2023/03/15 08:41:00;;;;;;;1.30;1.20;;;15.00;60.90;15.80;100914.00;;;;5025280;28;20183;-45
2023/03/15 08:43:26;;;;;;;1.33;1.23;;;15.00;60.80;15.80;100912.00;;;;5010037;28;20259;-45
2023/03/15 08:45:52;;;;;;;1.30;1.30;;;15.10;60.90;15.80;100921.00;;;;5010130;28;20845;-46
2023/03/15 08:48:18;;;;;;;1.50;1.40;;;15.00;60.80;15.80;100927.00;;;;5010078;28;20852;-45
2023/03/15 08:50:43;;;;;;;1.10;1.10;;;15.00;60.80;15.80;100920.00;;;;5009870;28;20691;-45
2023/03/15 08:53:09;;;;;;;1.60;1.50;;;15.10;60.90;15.80;100917.00;;;;5009276;28;20229;-44
2023/03/15 08:55:36;;;;;;;1.40;1.30;;;15.10;60.90;15.80;100926.00;;;;5010348;28;20254;-45
2023/03/15 08:58:03;;;;;;;1.43;1.33;;;15.00;60.90;15.80;100933.00;;;;5008903;28;20211;-45
2023/03/15 09:00:29;;;;;;;1.20;1.20;;;15.10;61.00;15.80;100938.00;;;;5009150;28;20187;-45
2023/03/15 09:02:55;;;;;;;1.43;1.33;;;15.00;61.00;15.80;100938.00;;;;4999965;28;20282;-45
2023/03/15 09:05:21;;;;;;;1.30;1.30;;;15.00;61.00;15.80;100944.00;;;;5009281;28;20229;-45
2023/03/15 09:07:47;;;;;;;1.30;1.27;;;15.00;61.00;15.80;100949.00;;;;5006536;28;20210;-47
2023/03/15 09:10:15;;;;;;;1.47;1.37;;;15.00;61.00;15.80;100945.00;;;;5007966;28;20589;-44
2023/03/15 09:12:45;;;;;;;1.57;1.47;;;15.00;61.00;15.80;100956.00;;;;5008302;28;20212;-44
2023/03/15 09:15:11;;;;;;;1.73;1.43;;;15.00;61.20;15.80;100948.00;;;;5007844;28;20335;-46
2023/03/15 09:17:40;;;;;;;1.63;1.53;;;15.00;61.40;15.80;100955.00;;;;5009732;28;20207;-45
2023/03/15 09:20:13;;;;;;;1.70;1.60;;;15.10;61.50;15.80;100959.00;;;;5009282;28;20179;-47
2023/03/15 09:22:42;;;;;;;2.00;1.80;;;15.00;61.40;15.80;100946.00;;;;5007310;28;20777;-46
2023/03/15 09:25:08;;;;;;;2.40;1.93;;;15.00;61.40;15.90;100951.00;;;;5013966;28;20199;-44
2023/03/15 09:27:34;;;;;;;1.80;1.70;;;15.00;61.50;15.90;100952.00;;;;5015702;28;20266;-45
2023/03/15 09:30:00;;;;;;;2.10;1.90;;;15.00;61.50;15.80;100955.00;;;;5016005;28;20222;-45
2023/03/15 09:32:26;;;;;;;1.60;1.50;;;15.00;61.40;15.90;100956.00;;;;5010171;28;20230;-46
2023/03/15 09:34:52;;;;;;;1.70;1.60;;;15.00;61.40;15.90;100956.00;;;;5009727;28;20188;-44
2023/03/15 09:37:19;;;;;;;1.93;1.73;;;15.10;61.50;15.90;100955.00;;;;5008550;28;20215;-45
2023/03/15 09:39:45;;;;;;;1.80;1.70;;;15.00;61.40;15.90;100965.00;;;;5009364;28;20233;-45
2023/03/15 09:42:24;;;;;;;1.97;1.70;;;15.00;61.40;15.90;100958.00;;;;5009592;28;21171;-45
2023/03/15 09:45:03;;;;;;;2.57;1.70;;;15.00;61.40;15.90;100967.00;;;;5008348;28;20192;-46
2023/03/15 09:48:10;;;;;;;1.80;1.70;;;15.00;61.40;15.90;100973.00;;;;5008659;28;20179;-46
2023/03/15 09:51:06;;;;;;;1.80;1.70;;;15.00;61.40;15.90;100978.00;;;;5008789;28;20550;-47
2023/03/15 09:53:41;;;;;;;2.00;1.90;;;15.10;61.50;15.90;100984.00;;;;5008588;28;20631;-45
2023/03/15 09:56:21;;;;;;;2.10;1.90;;;15.10;61.50;15.90;100978.00;;;;5007937;28;20595;-45
2023/03/15 09:58:47;;;;;;;1.60;1.50;;;15.10;61.50;15.90;100978.00;;;;5008401;28;20203;-46
2023/03/15 10:01:13;;;;;;;1.57;1.47;;;15.10;61.50;15.90;100975.00;;;;5005535;28;20180;-46
2023/03/15 10:03:47;;;;;;;3.30;1.60;;;15.10;61.50;15.90;100962.00;;;;4974823;28;20191;-46
2023/03/15 10:06:26;;;;;;;2.00;1.80;;;15.10;61.50;15.90;100962.00;;;;5008519;28;20179;-45
2023/03/15 10:08:58;;;;;;;2.20;2.00;;;15.10;61.80;15.90;100978.00;;;;5007989;28;20706;-44
2023/03/15 10:11:46;;;;;;;6.10;1.80;;;15.10;61.70;15.90;100965.00;;;;5008551;28;20215;-44
2023/03/15 10:14:47;;;;;;;2.30;2.10;;;15.10;61.90;15.90;100973.00;;;;5007472;28;20616;-45
2023/03/15 10:17:15;;;;;;;3.13;1.80;;;15.10;62.10;15.90;100958.00;;;;5007362;28;20222;-45
2023/03/15 10:19:48;;;;;;;7.20;1.90;;;15.10;62.20;15.90;100964.00;;;;5008052;28;20175;-46
2023/03/15 10:22:16;;;;;;;7.60;2.10;;;15.10;62.10;15.90;100966.00;;;;5007772;28;20226;-44
2023/03/15 10:25:00;;;;;;;3.30;1.93;;;15.10;62.20;15.90;100972.00;;;;5011943;28;20190;-44
2023/03/15 10:27:34;;;;;;;3.73;1.80;;;15.10;62.40;15.90;100978.00;;;;5011271;28;20250;-45
2023/03/15 10:30:00;;;;;;;3.23;1.83;;;15.10;62.40;15.90;100975.00;;;;5010106;28;20179;-44
2023/03/15 10:32:30;;;;;;;3.57;1.90;;;15.10;62.50;15.90;100973.00;;;;5008196;28;20239;-44
2023/03/15 10:34:56;;;;;;;4.77;1.87;;;15.10;62.80;15.90;100986.00;;;;5008068;28;20168;-45
2023/03/15 10:37:25;;;;;;;6.17;2.30;;;15.10;63.10;15.90;100984.00;;;;5007363;28;20180;-45
2023/03/15 10:39:56;;;;;;;3.73;2.00;;;15.10;63.00;15.90;100986.00;;;;5008901;28;20259;-45
2023/03/15 10:42:29;;;;;;;4.47;1.90;;;15.10;63.00;15.90;100983.00;;;;5006977;28;20675;-45
2023/03/15 10:44:56;;;;;;;6.00;2.10;;;15.20;63.20;15.90;100987.00;;;;5008889;28;20594;-44
2023/03/15 10:47:21;;;;;;;4.53;2.10;;;15.10;63.00;16.00;100990.00;;;;5007225;28;20669;-44
2023/03/15 10:49:48;;;;;;;4.13;2.00;;;15.10;63.00;16.00;100985.00;;;;5007568;28;20172;-44